Hauptseite
METAR-TAF:

METAR-TAF

Flughäfen :

Hof, Deutschland

Breite: 50-19N, Länge: 011-53E, Höhe: 567 m

Beobachtung

Neuester Wetterbericht von vor 32 Minuten, um 08:20 UTC
Wind 10 kt aus Süd/Südwest
Temperatur 6°C
Luftfeuchtigkeit 65%
Luftdruck 1009 hPa
Sichtweite 10 km oder mehr
Geschlossene Wolkendecke in der Höhe von 2700 ft

METAR: EDQM 270820Z 20010KT 9999 OVC027 06/00 Q1009

Zeit: 09:52 (08:52 UTC)

Prognose

Neuester Wetterbericht von vor 52 Minuten, um 08:00 UTC
Gültige Prognose vom 27 um 09 UTC bis 27 um 18 UTC
Wind 9 kt aus Süd/Südwest
Sichtweite 10 km oder mehr
Durchbrochene Bewölkung in der Höhe von 2500 ft

TAF: EDQM 270800Z 2709/2718 20009KT 9999 BKN025

Wetterbeobachtungen und Prognosen von mehr als 4000 Flughäfen (METAR und TAF Bericht).

Die verfügbaren Stationen werden durch gelbe und rote Markierungen auf der Karte dargestellt.

Führen Sie die Maus auf sie, um den Namen der Station zu sehen.

Darauf klicken, um die Beobachtung von Wetterbeobachtungen und Prognosen zu sehen.

Um die Karte zu ändern : klicken Sie auf den grünen Tasten mit einem schwarzen Kreuz Zum Vergrößern, auf den grünen Button mit einem Gedankenstrich zu verkleinern, oder auf die grünen Pfeile für benachbarte Karten.


METAR-TAF: